Weather History for KLCG - June, 2013

Change the Weather History Date:

Sunday, June 16, 2013

  Actual Average (KOFK) Record (KOFK)
Temperature  
Mean Temperature 70 °F 71 °F  
Max Temperature 83 °F 82 °F 106 °F (1946)
Min Temperature 57 °F 59 °F 44 °F (1976)
Degree Days  
Heating Degree Days 0 1  
Month to date heating degree days 25  
Since 1 June heating degree days 25  
Since 1 July heating degree days 6638  
Cooling Degree Days 4 6  
Month to date cooling degree days 74  
Year to date cooling degree days 135  
Since 1 June cooling degree days 74  
Growing Degree Days 20 (Base 50)    
Moisture  
Dew Point 54 °F    
Average Humidity 63    
Maximum Humidity 100    
Minimum Humidity 27    
Precipitation  
Precipitation 0.00 in 0.14 in 2.39 in (1964)
Month to date precipitation 2.31  
Year to date precipitation 12.01  
Snow  
Snow 0.00 in 0.00 in - ()
Month to date snowfall 0.0  
Since 1 July snowfall 30.5  
Snow Depth -    
Sea Level Pressure  
Sea Level Pressure 29.99 in    
Wind  
Wind Speed 2 mph (NE)    
Max Wind Speed 15 mph    
Max Gust Speed 20 mph    
Visibility 10 miles    
Events Thunderstorm    
T = Trace of Precipitation, MM = Missing Value Source: NWS Daily Summary

Daily Weather History Graph

Daily Weather History Graph

Search for Another Location

Airport or City:

Trip Planner

Search our weather history database for the weather conditions in past years. The results will help you decide how hot, cold, wet, or windy it might be!

Date:

Astronomy

Jun. 16, 2013 Rise Set
Actual Time 5:50 AM CDT 9:06 PM CDT
Civil Twilight 5:16 AM CDT 9:41 PM CDT
Nautical Twilight 4:31 AM CDT 10:26 PM CDT
Astronomical Twilight 3:37 AM CDT 11:20 PM CDT
Moon 1:36 PM CDT (6/16) 1:04 AM CDT (6/16)
Length of Visible Light 16h 24m
Length of Day
15h 15m
Waxing Crescent, 50% of the Moon is Illuminated
Jun 16
Waxing Crescent
Jun 16
First Quarter
Jun 23
Full
Jun 29
Last Quarter
Jul 8
New

Hourly Weather History & Observations

Time (CDT) Temp. Dew Point Humidity Pressure Visibility Wind Dir Wind Speed Gust Speed Precip Events Conditions
12:15 AM 63.5 °F 62.6 °F 97% 29.98 in 10.0 mi Calm Calm - N/A   Clear
12:35 AM 62.8 °F 62.2 °F 98% 29.98 in 10.0 mi Calm Calm - N/A   Clear
12:55 AM 61.9 °F 61.7 °F 99% 29.97 in 10.0 mi Calm Calm - N/A   Clear
1:15 AM 61.2 °F 61.2 °F 100% 29.97 in 10.0 mi Calm Calm - N/A   Clear
1:35 AM 61.2 °F 61.2 °F 100% 29.97 in 10.0 mi Calm Calm - N/A   Clear
1:55 AM 60.8 °F 60.6 °F 99% 29.98 in 10.0 mi Calm Calm - N/A   Clear
2:15 AM 60.3 °F 60.1 °F 99% 29.97 in 10.0 mi Calm Calm - N/A   Clear
2:35 AM 60.1 °F 60.1 °F 100% 29.97 in 10.0 mi Calm Calm - N/A   Clear
2:55 AM 59.9 °F 59.9 °F 100% 29.98 in 10.0 mi Calm Calm - N/A   Clear
3:15 AM 59.2 °F 59.2 °F 100% 29.98 in 10.0 mi Calm Calm - N/A   Clear
3:35 AM 59.2 °F 59.2 °F 100% 29.98 in 7.0 mi Calm Calm - N/A   Clear
3:55 AM 58.8 °F 58.6 °F 99% 29.98 in 10.0 mi Calm Calm - N/A   Clear
4:15 AM 58.5 °F 58.5 °F 100% 29.98 in 10.0 mi Calm Calm - N/A   Clear
4:35 AM 58.1 °F 58.1 °F 100% 29.98 in 7.0 mi Calm Calm - N/A   Clear
4:55 AM 57.6 °F 57.6 °F 100% 29.99 in 7.0 mi Calm Calm - N/A   Clear
5:15 AM 57.4 °F 57.4 °F 100% 30.00 in 7.0 mi Calm Calm - N/A   Clear
5:35 AM 57.6 °F 57.6 °F 100% 29.99 in 7.0 mi Calm Calm - N/A   Clear
5:55 AM 57.2 °F 57.2 °F 100% 29.99 in 7.0 mi Calm Calm - N/A   Clear
6:15 AM 57.9 °F 57.9 °F 100% 29.99 in 10.0 mi Calm Calm - N/A   Clear
6:35 AM 58.6 °F 57.9 °F 97% 29.99 in 10.0 mi Calm Calm - N/A   Clear
6:55 AM 59.7 °F 59.2 °F 98% 30.00 in 7.0 mi Calm Calm - N/A   Clear
7:15 AM 60.8 °F 59.2 °F 94% 30.00 in 10.0 mi Calm Calm - N/A   Clear
7:35 AM 63.0 °F 59.5 °F 89% 30.00 in 10.0 mi Calm Calm - N/A   Clear
7:55 AM 65.3 °F 59.9 °F 83% 30.00 in 10.0 mi Calm Calm - N/A   Clear
8:15 AM 68.2 °F 60.3 °F 76% 30.01 in 10.0 mi Calm Calm - N/A   Clear
8:35 AM 70.2 °F 60.3 °F 71% 30.01 in 10.0 mi Calm Calm - N/A   Clear
8:55 AM 72.3 °F 58.6 °F 62% 30.01 in 10.0 mi Calm Calm - N/A   Clear
9:15 AM 74.5 °F 55.0 °F 51% 30.01 in 10.0 mi NE 4.6 mph - N/A   Clear
9:55 AM 77.9 °F 47.1 °F 34% 30.01 in 10.0 mi ENE 8.1 mph - N/A   Clear
10:15 AM 78.8 °F 48.2 °F 34% 30.01 in 10.0 mi East 6.9 mph - N/A   Clear
10:35 AM 78.3 °F 50.0 °F 37% 30.00 in 10.0 mi East 6.9 mph - N/A   Clear
10:55 AM 79.0 °F 50.0 °F 36% 30.01 in 10.0 mi East 6.9 mph - N/A   Clear
11:15 AM 79.0 °F 48.7 °F 35% 30.01 in 10.0 mi NE 5.8 mph - N/A   Clear
11:35 AM 79.9 °F 49.5 °F 34% 30.01 in 10.0 mi SE 5.8 mph - N/A   Clear
11:55 AM 79.5 °F 48.7 °F 34% 30.02 in 10.0 mi SSW 4.6 mph - N/A   Clear
12:15 PM 80.6 °F 48.9 °F 33% 30.03 in 10.0 mi South 5.8 mph - N/A   Clear
12:35 PM 80.6 °F 48.4 °F 32% 30.03 in 10.0 mi Calm Calm - N/A   Clear
12:55 PM 80.8 °F 48.2 °F 32% 30.03 in 10.0 mi Calm Calm - N/A   Clear
1:15 PM 80.8 °F 49.1 °F 33% 30.03 in 10.0 mi SW 5.8 mph - N/A   Clear
1:35 PM 81.7 °F 48.4 °F 31% 30.02 in 10.0 mi SE 3.5 mph - N/A   Clear
1:55 PM 81.7 °F 47.8 °F 31% 30.02 in 10.0 mi WSW 4.6 mph - N/A   Clear
2:15 PM 81.5 °F 48.4 °F 31% 30.00 in 10.0 mi ENE 3.5 mph - N/A   Clear
2:35 PM 81.7 °F 49.1 °F 32% 30.00 in 10.0 mi NE 5.8 mph - N/A   Clear
2:55 PM 82.6 °F 47.3 °F 29% 30.00 in 10.0 mi NNE 11.5 mph - N/A   Clear
3:15 PM 81.7 °F 46.6 °F 29% 30.00 in 10.0 mi NNE 9.2 mph - N/A   Clear
3:35 PM 81.9 °F 47.1 °F 30% 30.02 in 10.0 mi NNW 6.9 mph - N/A   Clear
3:55 PM 81.1 °F 46.6 °F 30% 30.03 in 10.0 mi NNW 9.2 mph - N/A   Clear
4:15 PM 80.8 °F 44.6 °F 28% 30.03 in 10.0 mi North 8.1 mph - N/A   Clear
4:35 PM 81.5 °F 44.2 °F 27% 30.03 in 10.0 mi North 9.2 mph - N/A   Clear
4:55 PM 81.3 °F 46.2 °F 29% 30.01 in 10.0 mi North 11.5 mph - N/A   Clear
5:15 PM 79.5 °F 49.8 °F 35% 30.03 in 10.0 mi NNW 15.0 mph 19.6 mph N/A   Clear
5:35 PM 77.5 °F 47.3 °F 34% 30.02 in 10.0 mi North 11.5 mph 17.3 mph N/A   Clear
5:55 PM 77.0 °F 47.5 °F 35% 29.97 in 10.0 mi Calm Calm - N/A   Clear
6:15 PM 76.8 °F 47.8 °F 36% 29.93 in 10.0 mi SSE 11.5 mph - N/A Thunderstorm Clear
6:35 PM 75.2 °F 49.1 °F 40% 29.92 in 10.0 mi South 10.4 mph - N/A   Clear
6:55 PM 75.9 °F 50.7 °F 41% 29.93 in 10.0 mi SSE 4.6 mph - N/A   Clear
7:15 PM 76.3 °F 50.9 °F 41% 29.95 in 10.0 mi Calm Calm - N/A   Clear
7:35 PM 75.7 °F 51.8 °F 43% 29.95 in 10.0 mi South 3.5 mph - N/A   Clear
7:55 PM 73.6 °F 55.9 °F 54% 29.96 in 10.0 mi Calm Calm - N/A   Clear
8:15 PM 72.1 °F 57.0 °F 59% 29.98 in 10.0 mi Calm Calm - N/A   Clear
8:35 PM 71.8 °F 57.6 °F 61% 29.98 in 10.0 mi Calm Calm - N/A   Clear
8:55 PM 71.2 °F 56.8 °F 60% 29.97 in 10.0 mi Calm Calm - N/A   Clear
9:15 PM 70.7 °F 54.5 °F 56% 29.98 in 10.0 mi Calm Calm - N/A   Clear
9:35 PM 68.4 °F 56.1 °F 65% 29.99 in 10.0 mi Calm Calm - N/A   Clear
9:55 PM 66.7 °F 55.2 °F 66% 30.00 in 10.0 mi Calm Calm - N/A   Clear
10:15 PM 64.4 °F 54.3 °F 70% 30.01 in 10.0 mi North 6.9 mph - N/A   Clear
10:35 PM 64.8 °F 52.2 °F 64% 30.02 in 10.0 mi Calm Calm - N/A   Clear
10:55 PM 65.5 °F 51.3 °F 60% 30.02 in 10.0 mi Calm Calm - N/A   Clear
11:15 PM 63.1 °F 52.2 °F 67% 30.00 in 10.0 mi North 3.5 mph - N/A   Clear
11:35 PM 61.9 °F 52.0 °F 70% 30.01 in 10.0 mi Calm Calm - N/A   Clear
11:55 PM 62.1 °F 52.2 °F 70% 30.00 in 10.0 mi Calm Calm - N/A   Clear